Wetterdaten: Woche 30.06.14 - 06.07.14 (KW27)
Datum Zeit Temp. A. Feuchte A. Luftdruck Regen Wind Richtung Taupunkt Windchill Windben
30.06.2014 00:00 14,8 C 83 % 1009,2 hPa 0,5 l/m 8,6 km/h N 11,9 C 13,6 C 26,1 km/h
30.06.2014 01:00 14,3 C 83 % 1009,6 hPa 4,7 l/m 7,1 km/h N 11,4 C 13,5 C 23,7 km/h
30.06.2014 02:00 13,8 C 82 % 1009,5 hPa 4,2 l/m 3,0 km/h N 10,8 C 13,8 C 16,1 km/h
30.06.2014 03:00 13,8 C 82 % 1009,3 hPa 0,8 l/m 4,6 km/h N 10,8 C 13,7 C 18,1 km/h
30.06.2014 04:00 13,7 C 83 % 1009,3 hPa 1,8 l/m 5,7 km/h N 10,8 C 13,6 C 20,1 km/h
30.06.2014 05:00 13,4 C 83 % 1009,1 hPa 2,3 l/m 6,9 km/h N 10,5 C 12,6 C 22,5 km/h
30.06.2014 06:00 13,2 C 83 % 1009,1 hPa 1,6 l/m 8,4 km/h N 10,3 C 11,9 C 23,7 km/h
30.06.2014 07:00 13,2 C 83 % 1009,3 hPa 2,1 l/m 8,4 km/h N 10,4 C 12,0 C 23,3 km/h
30.06.2014 08:00 13,3 C 82 % 1010,2 hPa 3,4 l/m 7,9 km/h N 10,3 C 12,4 C 21,7 km/h
30.06.2014 09:00 13,5 C 82 % 1010,2 hPa 2,1 l/m 5,4 km/h N 10,3 C 13,3 C 18,5 km/h
30.06.2014 10:00 14,1 C 82 % 1010,1 hPa 0,8 l/m 7,3 km/h N 11,0 C 13,5 C 21,7 km/h
30.06.2014 11:00 14,8 C 83 % 1010,2 hPa 0,3 l/m 8,3 km/h N 11,9 C 13,7 C 24,5 km/h
30.06.2014 12:00 15,3 C 83 % 1010,6 hPa 0,0 l/m 8,8 km/h N 12,5 C 14,1 C 22,5 km/h
30.06.2014 13:00 15,2 C 83 % 1010,9 hPa 1,0 l/m 6,5 km/h N 12,4 C 14,9 C 21,3 km/h
30.06.2014 14:00 16,0 C 83 % 1011,3 hPa 0,0 l/m 8,4 km/h N 13,0 C 14,9 C 22,9 km/h
30.06.2014 15:00 16,4 C 80 % 1011,4 hPa 0,0 l/m 9,9 km/h N 13,0 C 14,7 C 27,8 km/h
30.06.2014 16:00 17,6 C 77 % 1011,2 hPa 0,0 l/m 10,1 km/h N 13,6 C 16,0 C 25,7 km/h
30.06.2014 17:00 17,1 C 74 % 1011,6 hPa 0,0 l/m 10,0 km/h N 12,5 C 15,5 C 26,9 km/h
30.06.2014 18:00 16,5 C 74 % 1012,0 hPa 0,0 l/m 10,4 km/h N 11,9 C 14,7 C 28,1 km/h
30.06.2014 19:00 17,2 C 69 % 1012,3 hPa 0,0 l/m 10,4 km/h N 11,4 C 15,5 C 27,0 km/h
30.06.2014 20:00 16,3 C 72 % 1013,0 hPa 0,0 l/m 11,1 km/h N 11,2 C 14,1 C 27,8 km/h
30.06.2014 21:00 16,3 C 73 % 1013,7 hPa 0,0 l/m 12,0 km/h N 11,4 C 13,7 C 31,0 km/h
30.06.2014 22:00 15,9 C 74 % 1014,5 hPa 0,0 l/m 12,1 km/h N 11,3 C 13,3 C 29,8 km/h
30.06.2014 23:00 15,3 C 75 % 1014,9 hPa 0,0 l/m 11,7 km/h N 10,8 C 12,7 C 30,2 km/h
01.07.2014 00:00 15,1 C 75 % 1015,0 hPa 0,0 l/m 13,1 km/h N 10,6 C 12,0 C 32,6 km/h
01.07.2014 01:00 15,0 C 74 % 1015,3 hPa 0,0 l/m 9,8 km/h N 10,3 C 13,2 C 24,1 km/h
01.07.2014 02:00 14,7 C 73 % 1015,8 hPa 0,0 l/m 8,9 km/h N 10,0 C 13,3 C 25,8 km/h
01.07.2014 03:00 14,2 C 76 % 1015,9 hPa 0,0 l/m 8,0 km/h N 9,9 C 13,2 C 20,9 km/h
01.07.2014 04:00 14,2 C 75 % 1016,0 hPa 0,0 l/m 8,1 km/h N 9,8 C 13,2 C 25,8 km/h
01.07.2014 05:00 14,1 C 75 % 1016,6 hPa 0,0 l/m 6,0 km/h N 9,8 C 14,1 C 18,5 km/h
01.07.2014 06:00 14,9 C 73 % 1017,1 hPa 0,0 l/m 5,9 km/h N 10,1 C 14,9 C 19,7 km/h
01.07.2014 07:00 16,0 C 69 % 1017,5 hPa 0,0 l/m 8,3 km/h N 10,3 C 15,0 C 22,1 km/h
01.07.2014 08:00 17,1 C 66 % 1017,8 hPa 0,0 l/m 8,3 km/h N 10,7 C 16,2 C 21,7 km/h
01.07.2014 09:00 18,2 C 63 % 1017,8 hPa 0,0 l/m 7,0 km/h N 11,1 C 17,8 C 21,7 km/h
01.07.2014 10:00 19,2 C 61 % 1018,1 hPa 0,0 l/m 7,1 km/h N 11,4 C 18,9 C 20,5 km/h
01.07.2014 11:00 20,3 C 58 % 1018,1 hPa 0,0 l/m 5,5 km/h N 11,7 C 20,3 C 18,5 km/h
01.07.2014 12:00 21,5 C 54 % 1017,8 hPa 0,0 l/m 3,8 km/h N 11,7 C 21,5 C 14,5 km/h
01.07.2014 13:00 22,1 C 51 % 1017,4 hPa 0,0 l/m 3,5 km/h N 11,3 C 22,1 C 14,1 km/h
01.07.2014 14:00 22,5 C 48 % 1017,0 hPa 0,0 l/m 3,5 km/h N 11,0 C 22,5 C 14,1 km/h
01.07.2014 15:00 22,8 C 48 % 1016,9 hPa 0,0 l/m 2,6 km/h N 11,1 C 22,8 C 11,6 km/h
01.07.2014 16:00 22,5 C 47 % 1016,9 hPa 0,0 l/m 3,2 km/h N 10,6 C 22,5 C 14,1 km/h
01.07.2014 17:00 22,6 C 47 % 1016,9 hPa 0,0 l/m 2,2 km/h N 10,7 C 22,6 C 8,4 km/h
01.07.2014 18:00 22,3 C 49 % 1016,8 hPa 0,0 l/m 2,1 km/h N 11,1 C 22,3 C 8,4 km/h
01.07.2014 19:00 21,8 C 53 % 1016,5 hPa 0,0 l/m 2,0 km/h N 11,6 C 21,8 C 10,1 km/h
01.07.2014 20:00 20,8 C 58 % 1016,7 hPa 0,0 l/m 0,3 km/h N 12,1 C 20,8 C 2,8 km/h
01.07.2014 21:00 18,3 C 66 % 1017,1 hPa 0,0 l/m 0,0 km/h N 11,7 C 18,3 C 0,0 km/h
01.07.2014 22:00 16,2 C 74 % 1017,3 hPa 0,0 l/m 0,0 km/h N 11,6 C 16,2 C 0,0 km/h
01.07.2014 23:00 15,1 C 79 % 1017,5 hPa 0,0 l/m 0,0 km/h N 11,5 C 15,1 C 0,0 km/h
02.07.2014 00:00 14,4 C 80 % 1017,3 hPa 0,0 l/m 0,0 km/h N 11,0 C 14,4 C 0,0 km/h
02.07.2014 01:00 13,9 C 83 % 1017,4 hPa 0,0 l/m 0,0 km/h N 10,9 C 13,9 C 0,8 km/h
02.07.2014 02:00 14,1 C 83 % 1017,1 hPa 0,0 l/m 0,0 km/h N 11,3 C 14,1 C 0,0 km/h
02.07.2014 03:00 14,5 C 83 % 1017,1 hPa 0,0 l/m 0,0 km/h N 11,6 C 14,5 C 0,0 km/h
02.07.2014 04:00 14,2 C 83 % 1017,0 hPa 0,0 l/m 0,1 km/h N 11,4 C 14,2 C 1,6 km/h
02.07.2014 05:00 14,1 C 83 % 1017,2 hPa 0,0 l/m 0,1 km/h N 11,2 C 14,1 C 1,6 km/h
02.07.2014 06:00 13,8 C 84 % 1017,5 hPa 0,0 l/m 0,0 km/h N 11,0 C 13,8 C 0,0 km/h
02.07.2014 07:00 15,1 C 83 % 1017,7 hPa 0,0 l/m 0,0 km/h N 12,2 C 15,1 C 0,8 km/h
02.07.2014 08:00 18,0 C 76 % 1017,8 hPa 0,0 l/m 1,0 km/h N 13,7 C 18,0 C 6,4 km/h
02.07.2014 09:00 20,1 C 68 % 1017,8 hPa 0,0 l/m 0,9 km/h N 14,0 C 20,1 C 7,2 km/h
02.07.2014 10:00 21,6 C 64 % 1017,8 hPa 0,0 l/m 0,8 km/h N 14,5 C 21,6 C 8,0 km/h
02.07.2014 11:00 23,6 C 59 % 1017,8 hPa 0,0 l/m 1,4 km/h N 15,0 C 23,6 C 8,0 km/h
02.07.2014 12:00 24,4 C 57 % 1017,5 hPa 0,0 l/m 1,2 km/h N 15,3 C 24,4 C 8,4 km/h
02.07.2014 13:00 24,1 C 57 % 1017,0 hPa 0,0 l/m 1,1 km/h N 14,9 C 24,1 C 7,6 km/h
02.07.2014 14:00 21,7 C 69 % 1017,2 hPa 2,9 l/m 0,9 km/h N 15,6 C 21,7 C 5,6 km/h
02.07.2014 15:00 19,5 C 81 % 1017,6 hPa 1,8 l/m 0,2 km/h N 16,1 C 19,5 C 2,8 km/h
02.07.2014 16:00 18,9 C 83 % 1017,6 hPa 0,3 l/m 0,1 km/h N 15,9 C 18,9 C 2,4 km/h
02.07.2014 17:00 18,3 C 83 % 1018,0 hPa 1,0 l/m 4,1 km/h N 15,2 C 18,3 C 13,7 km/h
02.07.2014 18:00 16,8 C 83 % 1018,6 hPa 0,0 l/m 2,6 km/h N 13,8 C 16,8 C 12,1 km/h
02.07.2014 19:00 16,3 C 83 % 1018,9 hPa 0,3 l/m 2,8 km/h N 13,4 C 16,3 C 12,1 km/h
02.07.2014 20:00 16,2 C 82 % 1019,6 hPa 0,3 l/m 4,9 km/h N 13,1 C 16,1 C 18,1 km/h
02.07.2014 21:00 15,4 C 83 % 1020,2 hPa 0,5 l/m 6,7 km/h N 12,5 C 14,9 C 19,7 km/h
02.07.2014 22:00 15,1 C 82 % 1020,9 hPa 0,3 l/m 6,5 km/h N 12,1 C 14,9 C 18,5 km/h
02.07.2014 23:00 15,2 C 82 % 1021,0 hPa 0,0 l/m 5,5 km/h N 12,1 C 14,8 C 18,5 km/h
03.07.2014 00:00 15,5 C 80 % 1021,1 hPa 0,0 l/m 9,0 km/h N 12,0 C 14,1 C 27,3 km/h
03.07.2014 01:00 15,3 C 80 % 1021,6 hPa 0,3 l/m 11,3 km/h N 11,8 C 12,9 C 30,2 km/h
03.07.2014 02:00 15,1 C 80 % 1021,7 hPa 0,0 l/m 6,3 km/h N 11,7 C 14,9 C 20,9 km/h
03.07.2014 03:00 15,7 C 76 % 1022,0 hPa 0,0 l/m 9,0 km/h N 11,4 C 14,3 C 26,1 km/h
03.07.2014 04:00 15,5 C 75 % 1022,2 hPa 0,0 l/m 9,1 km/h N 11,1 C 14,1 C 26,1 km/h
03.07.2014 05:00 15,6 C 75 % 1023,0 hPa 0,0 l/m 11,5 km/h N 11,1 C 13,1 C 27,0 km/h
03.07.2014 06:00 15,7 C 76 % 1023,6 hPa 0,0 l/m 6,3 km/h N 11,4 C 15,5 C 19,7 km/h
03.07.2014 07:00 16,8 C 73 % 1023,9 hPa 0,0 l/m 9,1 km/h N 11,9 C 15,5 C 24,1 km/h
03.07.2014 08:00 18,4 C 69 % 1024,3 hPa 0,0 l/m 7,2 km/h N 12,6 C 18,0 C 23,3 km/h
03.07.2014 09:00 19,3 C 66 % 1024,5 hPa 0,0 l/m 9,5 km/h N 12,7 C 18,0 C 23,7 km/h
03.07.2014 10:00 20,3 C 65 % 1024,6 hPa 0,0 l/m 7,9 km/h N 13,5 C 19,8 C 22,5 km/h
03.07.2014 11:00 21,4 C 63 % 1024,3 hPa 0,0 l/m 7,2 km/h N 13,9 C 21,1 C 21,3 km/h
03.07.2014 12:00 22,4 C 58 % 1024,1 hPa 0,0 l/m 6,0 km/h N 13,8 C 22,3 C 20,5 km/h
03.07.2014 13:00 23,3 C 55 % 1023,9 hPa 0,0 l/m 6,3 km/h N 13,6 C 23,1 C 19,7 km/h
03.07.2014 14:00 24,0 C 54 % 1023,7 hPa 0,0 l/m 4,2 km/h N 14,0 C 24,0 C 16,9 km/h
03.07.2014 15:00 24,9 C 48 % 1023,4 hPa 0,0 l/m 5,0 km/h N 13,0 C 24,9 C 18,5 km/h
03.07.2014 16:00 24,7 C 47 % 1023,2 hPa 0,0 l/m 5,0 km/h N 12,4 C 24,7 C 18,1 km/h
03.07.2014 17:00 25,4 C 43 % 1022,8 hPa 0,0 l/m 4,0 km/h N 11,9 C 25,4 C 18,1 km/h
03.07.2014 18:00 25,7 C 41 % 1022,5 hPa 0,0 l/m 3,8 km/h N 11,6 C 25,7 C 18,5 km/h
03.07.2014 19:00 25,2 C 39 % 1022,2 hPa 0,0 l/m 2,2 km/h N 10,3 C 25,2 C 10,5 km/h
03.07.2014 20:00 24,3 C 43 % 1022,0 hPa 0,0 l/m 0,1 km/h N 10,7 C 24,3 C 1,6 km/h
03.07.2014 21:00 20,5 C 52 % 1022,5 hPa 0,0 l/m 0,1 km/h N 10,2 C 20,5 C 1,2 km/h
03.07.2014 22:00 18,0 C 60 % 1022,6 hPa 0,0 l/m 0,2 km/h N 10,2 C 18,0 C 3,6 km/h
03.07.2014 23:00 16,8 C 65 % 1022,7 hPa 0,0 l/m 0,2 km/h N 10,1 C 16,8 C 2,0 km/h
04.07.2014 00:00 15,3 C 72 % 1022,6 hPa 0,0 l/m 0,6 km/h N 10,2 C 15,3 C 4,0 km/h
04.07.2014 01:00 14,5 C 74 % 1022,2 hPa 0,0 l/m 0,0 km/h N 9,9 C 14,5 C 0,0 km/h
04.07.2014 02:00 13,2 C 78 % 1021,9 hPa 0,0 l/m 0,0 km/h N 9,4 C 13,2 C 0,0 km/h
04.07.2014 03:00 12,2 C 82 % 1021,6 hPa 0,0 l/m 0,0 km/h N 9,1 C 12,2 C 0,0 km/h
04.07.2014 04:00 11,6 C 84 % 1021,4 hPa 0,0 l/m 0,0 km/h N 8,9 C 11,6 C 0,0 km/h
04.07.2014 05:00 11,1 C 84 % 1021,3 hPa 0,0 l/m 0,0 km/h N 8,5 C 11,1 C 0,0 km/h
04.07.2014 06:00 11,6 C 83 % 1020,9 hPa 0,0 l/m 0,0 km/h N 8,7 C 11,6 C 0,4 km/h
04.07.2014 07:00 13,6 C 81 % 1020,5 hPa 0,0 l/m 0,4 km/h N 10,4 C 13,6 C 2,8 km/h
04.07.2014 08:00 18,1 C 76 % 1020,0 hPa 0,0 l/m 0,3 km/h N 13,8 C 18,1 C 5,6 km/h
04.07.2014 09:00 21,9 C 66 % 1019,3 hPa 0,0 l/m 0,4 km/h N 15,1 C 21,9 C 5,2 km/h
04.07.2014 10:00 25,0 C 54 % 1018,4 hPa 0,0 l/m 5,2 km/h N 14,9 C 24,9 C 23,0 km/h
04.07.2014 11:00 26,4 C 43 % 1017,6 hPa 0,0 l/m 8,9 km/h N 12,7 C 25,9 C 28,6 km/h
04.07.2014 12:00 27,3 C 40 % 1017,0 hPa 0,0 l/m 6,4 km/h N 12,4 C 26,9 C 27,0 km/h
04.07.2014 13:00 27,8 C 39 % 1016,3 hPa 0,0 l/m 11,4 km/h N 12,6 C 27,0 C 33,0 km/h
04.07.2014 14:00 27,9 C 39 % 1015,3 hPa 0,0 l/m 6,1 km/h N 12,5 C 27,6 C 20,9 km/h
04.07.2014 15:00 28,0 C 39 % 1014,6 hPa 0,0 l/m 1,0 km/h N 12,7 C 28,0 C 13,3 km/h
04.07.2014 16:00 27,6 C 41 % 1013,8 hPa 0,0 l/m 6,2 km/h N 13,0 C 27,5 C 29,8 km/h
04.07.2014 17:00 27,1 C 42 % 1013,1 hPa 0,0 l/m 7,8 km/h N 12,8 C 26,6 C 26,1 km/h
04.07.2014 18:00 26,5 C 44 % 1012,5 hPa 0,0 l/m 7,4 km/h N 13,2 C 26,2 C 26,5 km/h
04.07.2014 19:00 25,4 C 48 % 1012,2 hPa 0,0 l/m 8,0 km/h N 13,5 C 25,0 C 22,9 km/h
04.07.2014 20:00 24,0 C 53 % 1011,1 hPa 0,0 l/m 8,3 km/h N 13,7 C 23,4 C 20,9 km/h
04.07.2014 21:00 23,1 C 57 % 1010,8 hPa 0,0 l/m 8,3 km/h N 14,1 C 22,5 C 23,7 km/h
04.07.2014 22:00 22,2 C 60 % 1010,3 hPa 0,0 l/m 6,8 km/h N 13,9 C 21,9 C 19,3 km/h
04.07.2014 23:00 21,5 C 63 % 1009,8 hPa 0,0 l/m 7,7 km/h N 14,2 C 20,9 C 19,7 km/h
05.07.2014 00:00 20,6 C 66 % 1009,1 hPa 0,0 l/m 3,9 km/h N 14,0 C 20,6 C 17,3 km/h
05.07.2014 01:00 19,4 C 69 % 1008,7 hPa 0,0 l/m 3,1 km/h N 13,6 C 19,4 C 12,1 km/h
05.07.2014 02:00 18,7 C 73 % 1008,4 hPa 0,0 l/m 1,4 km/h N 13,8 C 18,7 C 8,0 km/h
05.07.2014 03:00 18,1 C 76 % 1008,1 hPa 0,0 l/m 0,6 km/h N 13,8 C 18,1 C 5,2 km/h
05.07.2014 04:00 17,5 C 78 % 1007,9 hPa 0,0 l/m 1,5 km/h N 13,6 C 17,5 C 7,7 km/h
05.07.2014 05:00 17,4 C 79 % 1008,2 hPa 0,3 l/m 0,1 km/h N 13,7 C 17,4 C 2,0 km/h
05.07.2014 06:00 16,8 C 82 % 1008,5 hPa 0,0 l/m 0,1 km/h N 13,7 C 16,8 C 1,2 km/h
05.07.2014 07:00 17,3 C 83 % 1008,6 hPa 0,0 l/m 1,1 km/h N 14,3 C 17,3 C 5,2 km/h
05.07.2014 08:00 18,6 C 81 % 1009,0 hPa 0,0 l/m 1,3 km/h N 15,3 C 18,6 C 5,6 km/h
05.07.2014 09:00 19,5 C 78 % 1009,2 hPa 0,0 l/m 1,2 km/h N 15,5 C 19,5 C 6,0 km/h
05.07.2014 10:00 21,2 C 72 % 1009,5 hPa 0,0 l/m 0,9 km/h N 16,0 C 21,2 C 4,8 km/h
05.07.2014 11:00 21,1 C 76 % 1009,8 hPa 0,3 l/m 0,9 km/h N 16,7 C 21,1 C 4,8 km/h
05.07.2014 12:00 22,4 C 73 % 1009,7 hPa 0,0 l/m 4,8 km/h N 17,3 C 22,4 C 16,1 km/h
05.07.2014 13:00 23,5 C 68 % 1009,7 hPa 0,0 l/m 4,3 km/h N 17,2 C 23,5 C 14,5 km/h
05.07.2014 14:00 24,4 C 65 % 1009,9 hPa 0,0 l/m 4,0 km/h N 17,3 C 24,4 C 14,5 km/h
05.07.2014 15:00 24,7 C 63 % 1010,1 hPa 0,0 l/m 4,2 km/h N 17,3 C 24,7 C 15,7 km/h
05.07.2014 16:00 24,5 C 63 % 1010,1 hPa 0,0 l/m 3,3 km/h N 17,1 C 24,5 C 13,3 km/h
05.07.2014 17:00 25,0 C 64 % 1010,2 hPa 0,0 l/m 0,2 km/h N 17,6 C 25,0 C 3,6 km/h
05.07.2014 18:00 25,0 C 61 % 1010,2 hPa 0,0 l/m 0,2 km/h N 16,8 C 25,0 C 2,8 km/h
05.07.2014 19:00 25,5 C 60 % 1010,3 hPa 0,0 l/m 0,0 km/h N 17,3 C 25,5 C 0,0 km/h
05.07.2014 20:00 25,5 C 63 % 1010,5 hPa 0,0 l/m 0,0 km/h N 17,9 C 25,5 C 0,0 km/h
05.07.2014 21:00 22,0 C 72 % 1011,0 hPa 0,0 l/m 0,0 km/h N 16,7 C 22,0 C 0,0 km/h
05.07.2014 22:00 19,8 C 79 % 1011,7 hPa 0,0 l/m 0,0 km/h N 16,1 C 19,8 C 0,0 km/h
05.07.2014 23:00 18,9 C 82 % 1012,0 hPa 0,0 l/m 0,1 km/h N 15,7 C 18,9 C 1,2 km/h
06.07.2014 00:00 20,3 C 74 % 1012,1 hPa 0,0 l/m 2,4 km/h N 15,4 C 20,3 C 12,1 km/h
06.07.2014 01:00 21,9 C 67 % 1012,2 hPa 0,0 l/m 1,5 km/h N 15,5 C 21,9 C 9,3 km/h
06.07.2014 02:00 20,2 C 72 % 1012,3 hPa 0,0 l/m 0,1 km/h N 15,0 C 20,2 C 1,6 km/h
06.07.2014 03:00 19,1 C 77 % 1012,6 hPa 0,0 l/m 0,4 km/h N 15,0 C 19,1 C 6,0 km/h
06.07.2014 04:00 20,5 C 72 % 1012,7 hPa 0,0 l/m 2,2 km/h N 15,2 C 20,5 C 9,7 km/h
06.07.2014 05:00 21,3 C 68 % 1012,8 hPa 0,0 l/m 3,8 km/h N 15,2 C 21,3 C 12,9 km/h
06.07.2014 06:00 21,8 C 68 % 1013,1 hPa 0,0 l/m 4,8 km/h N 15,5 C 21,7 C 16,9 km/h
06.07.2014 07:00 22,9 C 65 % 1013,2 hPa 0,0 l/m 6,4 km/h N 16,0 C 22,7 C 18,5 km/h
06.07.2014 08:00 23,9 C 63 % 1013,5 hPa 0,0 l/m 3,7 km/h N 16,5 C 23,9 C 16,1 km/h
06.07.2014 09:00 24,8 C 61 % 1013,7 hPa 0,0 l/m 4,0 km/h N 16,8 C 24,8 C 15,3 km/h
06.07.2014 10:00 25,5 C 60 % 1013,7 hPa 0,0 l/m 4,3 km/h N 17,1 C 25,5 C 12,9 km/h
06.07.2014 11:00 26,5 C 57 % 1013,4 hPa 0,0 l/m 2,6 km/h N 17,3 C 26,5 C 10,9 km/h
06.07.2014 12:00 27,1 C 52 % 1013,1 hPa 0,0 l/m 3,0 km/h N 16,4 C 27,1 C 12,1 km/h
06.07.2014 13:00 28,5 C 51 % 1012,5 hPa 0,0 l/m 0,9 km/h N 17,2 C 28,5 C 4,4 km/h
06.07.2014 14:00 29,8 C 47 % 1012,3 hPa 0,0 l/m 0,0 km/h N 17,3 C 29,8 C 0,0 km/h
06.07.2014 15:00 29,5 C 48 % 1012,0 hPa 0,0 l/m 0,0 km/h N 17,2 C 29,5 C 0,0 km/h
06.07.2014 16:00 29,3 C 48 % 1011,4 hPa 0,0 l/m 0,1 km/h N 17,1 C 29,3 C 2,4 km/h
06.07.2014 17:00 29,7 C 47 % 1011,0 hPa 0,0 l/m 0,0 km/h N 17,0 C 29,7 C 1,6 km/h
06.07.2014 18:00 29,7 C 48 % 1010,7 hPa 0,0 l/m 0,0 km/h N 17,3 C 29,7 C 0,0 km/h
06.07.2014 19:00 29,1 C 49 % 1010,6 hPa 0,0 l/m 0,0 km/h N 17,4 C 29,1 C 0,0 km/h
06.07.2014 20:00 28,0 C 53 % 1010,6 hPa 0,0 l/m 0,1 km/h N 17,5 C 28,0 C 0,8 km/h
06.07.2014 21:00 25,5 C 60 % 1011,0 hPa 0,0 l/m 0,1 km/h N 17,2 C 25,5 C 0,8 km/h
06.07.2014 22:00 22,5 C 71 % 1011,2 hPa 0,0 l/m 0,0 km/h N 16,9 C 22,5 C 0,0 km/h
06.07.2014 23:00 20,3 C 78 % 1011,3 hPa 0,0 l/m 0,0 km/h N 16,2 C 20,3 C 0,0 km/h
Min-Datum _ 04.07.14 03.07.14 05.07.14 - 01.07.14 - 04.07.14 30.06.14 01.07.14
_ Min-Zeit 05:15 19:30 04:15 - 20:30 - 06:00 07:45 20:30
Minimum _ 11,1 C 38 % 1007,8 hPa - 0,0 km/h - 8,4 C 11,0 C 0,0 km/h
Max-Datum _ 06.07.14 30.06.14 03.07.14 30.06.14 01.07.14 - 05.07.14 06.07.14 04.07.14
_ Max-Zeit 14:15 12:30 10:00 01:30 00:15 - 20:00 14:15 13:45
Maximum _ 30,1 C 84 % 1024,7 hPa 4,7 l/m 14,3 km/h
N
- 18,5 C 30,1 C 40,2 km/h
N
Durchschnitt _ 19,7 C 68 % 1015,4 hPa #33,5 l/m 4,1 km/h N 13,1 C 19,3 C 13,4 km/h